Time;durP1;ratioP1;P1;durP2;ratioP2;P2;SDS_P1;SDS_P2;PMS_P1;PMS_P2;Temp;Humidity;BMP_temperature;BMP_pressure;BME280_temperature;BME280_humidity;BME280_pressure;Samples;Min_cycle;Max_cycle;Signal;HPM_P1;HPM_P2
2023/07/04 00:00:23;;;;;;;3.80;1.60;;;21.30;56.60;;;;;;5053419;28;20225;-69
2023/07/04 00:02:52;;;;;;;1.75;1.40;;;21.30;56.60;;;;;;5053536;28;20179;-71
2023/07/04 00:05:18;;;;;;;2.55;1.30;;;21.40;56.70;;;;;;5052208;28;20175;-69
2023/07/04 00:07:43;;;;;;;1.85;1.30;;;21.30;56.70;;;;;;5053035;28;20171;-69
2023/07/04 00:10:09;;;;;;;2.13;1.33;;;21.30;56.60;;;;;;5052785;28;20175;-70
2023/07/04 00:12:34;;;;;;;2.58;1.30;;;21.30;56.60;;;;;;5052510;28;20179;-71
2023/07/04 00:15:00;;;;;;;1.77;1.15;;;21.30;56.70;;;;;;5052828;28;20178;-72
2023/07/04 00:17:26;;;;;;;3.78;1.48;;;21.30;56.60;;;;;;5053201;28;20252;-71
2023/07/04 00:19:52;;;;;;;1.75;1.30;;;21.30;56.70;;;;;;5052341;28;20182;-73
2023/07/04 00:22:17;;;;;;;1.75;1.33;;;21.30;56.80;;;;;;5052717;28;20638;-71
2023/07/04 00:24:44;;;;;;;1.55;1.20;;;21.30;56.80;;;;;;5052797;28;20179;-72
2023/07/04 00:27:12;;;;;;;1.35;1.00;;;21.30;56.70;;;;;;5051828;28;20187;-70
2023/07/04 00:29:38;;;;;;;1.38;1.25;;;21.30;56.70;;;;;;5052744;28;20537;-69
2023/07/04 00:32:05;;;;;;;2.22;1.33;;;21.30;56.70;;;;;;5051832;28;20182;-69
2023/07/04 00:34:30;;;;;;;3.05;1.33;;;21.30;56.70;;;;;;5052781;28;20167;-69
2023/07/04 00:36:59;;;;;;;2.17;1.33;;;21.30;56.70;;;;;;5052455;28;20645;-72
2023/07/04 00:39:28;;;;;;;2.42;1.20;;;21.30;56.70;;;;;;5051856;28;20242;-70
2023/07/04 00:41:54;;;;;;;2.28;1.33;;;21.30;56.80;;;;;;5052756;28;20175;-70
2023/07/04 00:44:22;;;;;;;2.03;1.10;;;21.30;56.70;;;;;;5052542;28;20185;-70
2023/07/04 00:46:53;;;;;;;3.03;1.50;;;21.30;56.70;;;;;;5051939;28;20259;-70
2023/07/04 00:49:27;;;;;;;2.25;1.40;;;21.30;56.80;;;;;;5052468;28;20175;-69
2023/07/04 00:51:59;;;;;;;1.95;1.23;;;21.20;56.70;;;;;;5034886;28;20217;-70
2023/07/04 00:54:26;;;;;;;3.67;1.30;;;21.20;56.80;;;;;;5052014;28;20179;-70
2023/07/04 00:56:57;;;;;;;2.58;1.40;;;21.20;56.80;;;;;;5051282;28;20643;-73
2023/07/04 00:59:23;;;;;;;3.33;1.23;;;21.20;56.80;;;;;;5051298;28;20222;-70
2023/07/04 01:01:48;;;;;;;1.15;1.05;;;21.20;56.80;;;;;;5050423;28;20167;-71
2023/07/04 01:04:14;;;;;;;1.83;0.93;;;21.20;56.90;;;;;;5053184;28;20183;-70
2023/07/04 01:06:49;;;;;;;2.38;1.48;;;21.20;56.90;;;;;;5055217;28;20171;-69
2023/07/04 01:09:17;;;;;;;3.60;1.58;;;21.20;56.90;;;;;;5054329;28;20608;-69
2023/07/04 01:11:44;;;;;;;2.28;1.40;;;21.20;56.80;;;;;;5055200;28;20593;-72
2023/07/04 01:14:20;;;;;;;1.77;1.20;;;21.20;56.90;;;;;;5054342;28;20171;-72
2023/07/04 01:16:46;;;;;;;1.88;1.17;;;21.20;56.90;;;;;;5056473;28;20189;-74
2023/07/04 01:19:12;;;;;;;2.20;1.10;;;21.20;56.90;;;;;;5056046;28;20665;-71
2023/07/04 01:21:37;;;;;;;2.00;1.20;;;21.20;56.90;;;;;;5054444;28;20518;-71
2023/07/04 01:24:21;;;;;;;3.42;1.30;;;21.20;56.90;;;;;;5054699;28;20630;-71
2023/07/04 01:26:47;;;;;;;2.47;1.25;;;21.20;57.10;;;;;;5055084;28;20175;-72
2023/07/04 01:29:14;;;;;;;2.03;1.10;;;21.10;57.00;;;;;;5054126;28;20262;-70
2023/07/04 01:31:40;;;;;;;3.70;1.50;;;21.20;57.10;;;;;;5055110;28;20179;-69
2023/07/04 01:34:06;;;;;;;3.13;1.20;;;21.10;57.00;;;;;;5054755;28;20183;-70
2023/07/04 01:36:33;;;;;;;2.97;1.67;;;21.10;57.00;;;;;;5054046;28;20262;-70
2023/07/04 01:39:05;;;;;;;2.67;1.50;;;21.10;57.00;;;;;;5054085;28;20621;-71
2023/07/04 01:41:31;;;;;;;3.22;1.35;;;21.10;57.00;;;;;;5056061;28;20244;-69
2023/07/04 01:44:02;;;;;;;1.85;1.30;;;21.10;57.00;;;;;;5055136;28;20171;-70
2023/07/04 01:46:28;;;;;;;1.23;1.10;;;21.10;57.10;;;;;;5055960;28;20229;-69
2023/07/04 01:48:55;;;;;;;3.20;1.63;;;21.10;57.00;;;;;;5055796;28;20171;-70
2023/07/04 01:51:29;;;;;;;2.40;1.20;;;21.10;57.00;;;;;;5055016;28;20183;-69
2023/07/04 01:53:54;;;;;;;2.75;1.23;;;21.10;57.00;;;;;;5055507;28;20707;-71
2023/07/04 01:56:20;;;;;;;1.90;1.20;;;21.10;57.60;;;;;;5055088;28;20211;-70
2023/07/04 01:58:46;;;;;;;2.03;1.42;;;21.10;57.00;;;;;;5055527;28;20566;-72
2023/07/04 02:01:11;;;;;;;2.92;1.55;;;21.10;57.00;;;;;;5055143;28;20258;-69
2023/07/04 02:03:37;;;;;;;2.10;1.50;;;21.10;57.10;;;;;;5054841;28;20179;-69
2023/07/04 02:06:02;;;;;;;2.40;1.27;;;21.10;57.10;;;;;;5055162;28;20181;-69
2023/07/04 02:08:28;;;;;;;2.35;1.23;;;21.10;57.60;;;;;;5055347;28;20182;-70
2023/07/04 02:10:54;;;;;;;2.63;1.02;;;21.10;57.10;;;;;;5054788;28;20178;-73
2023/07/04 02:13:19;;;;;;;1.80;1.00;;;21.10;57.10;;;;;;5055060;28;20186;-71
2023/07/04 02:15:45;;;;;;;2.17;1.35;;;21.10;57.20;;;;;;5054742;28;20174;-73
2023/07/04 02:18:10;;;;;;;2.22;1.33;;;21.10;57.20;;;;;;5054227;28;20250;-72
2023/07/04 02:20:36;;;;;;;1.98;1.10;;;21.10;57.20;;;;;;5055121;28;20171;-72
2023/07/04 02:23:01;;;;;;;1.58;1.02;;;21.10;57.20;;;;;;5054713;28;20218;-72
2023/07/04 02:25:27;;;;;;;3.30;1.40;;;21.10;57.90;;;;;;5054302;28;20673;-71
2023/07/04 02:27:52;;;;;;;1.95;1.20;;;21.10;57.20;;;;;;5055194;28;20183;-71
2023/07/04 02:30:18;;;;;;;1.40;1.10;;;21.10;57.20;;;;;;5054784;28;20171;-69
2023/07/04 02:32:43;;;;;;;1.35;0.90;;;21.10;57.20;;;;;;5054242;28;20240;-71
2023/07/04 02:35:09;;;;;;;3.50;1.40;;;21.00;57.20;;;;;;5054670;28;20175;-69
2023/07/04 02:37:34;;;;;;;3.00;1.60;;;21.00;57.20;;;;;;5054701;28;20207;-69
2023/07/04 02:40:00;;;;;;;1.42;1.20;;;21.00;57.20;;;;;;5053447;28;20230;-71
2023/07/04 02:42:26;;;;;;;2.75;1.55;;;21.10;57.20;;;;;;5054768;28;20179;-70
2023/07/04 02:44:51;;;;;;;2.25;1.30;;;21.00;57.30;;;;;;5054642;28;20507;-71
2023/07/04 02:47:18;;;;;;;4.30;1.40;;;21.00;57.20;;;;;;5053659;28;20534;-69
2023/07/04 02:49:43;;;;;;;1.98;1.27;;;21.00;57.30;;;;;;5054683;28;20542;-69
2023/07/04 02:52:09;;;;;;;2.08;1.27;;;21.00;57.30;;;;;;5054249;28;20646;-70
2023/07/04 02:54:34;;;;;;;2.33;1.17;;;21.00;57.30;;;;;;5053653;28;20171;-70
2023/07/04 02:57:00;;;;;;;2.03;1.23;;;21.00;57.40;;;;;;5054126;28;20183;-71
2023/07/04 02:59:26;;;;;;;3.33;1.40;;;21.00;57.30;;;;;;5054433;28;20211;-70
2023/07/04 03:01:52;;;;;;;1.70;1.10;;;21.00;57.40;;;;;;5053568;28;20168;-71
2023/07/04 03:04:17;;;;;;;2.58;1.20;;;21.00;57.40;;;;;;5054015;28;20272;-69
2023/07/04 03:06:43;;;;;;;2.15;1.40;;;21.00;57.40;;;;;;5053468;28;20179;-70
2023/07/04 03:09:08;;;;;;;2.63;1.48;;;21.00;57.40;;;;;;5053816;28;20181;-70
2023/07/04 03:11:34;;;;;;;3.05;1.30;;;21.00;57.40;;;;;;5054073;28;20171;-70
2023/07/04 03:13:59;;;;;;;2.55;1.60;;;20.90;57.40;;;;;;5053038;28;20206;-72
2023/07/04 03:16:25;;;;;;;3.28;1.30;;;20.90;57.30;;;;;;5054172;28;20179;-72
2023/07/04 03:18:51;;;;;;;1.90;1.15;;;20.90;57.40;;;;;;5053924;28;20666;-73
2023/07/04 03:21:16;;;;;;;2.78;1.52;;;21.00;58.10;;;;;;5053002;28;20258;-72
2023/07/04 03:23:42;;;;;;;2.30;1.55;;;21.00;57.40;;;;;;5053913;28;20194;-71
2023/07/04 03:26:08;;;;;;;2.47;1.30;;;20.90;57.40;;;;;;5053195;28;20171;-71
2023/07/04 03:28:33;;;;;;;1.95;1.30;;;21.00;57.50;;;;;;5052743;28;20186;-70
2023/07/04 03:30:59;;;;;;;2.35;1.40;;;20.90;57.40;;;;;;5053525;28;20634;-70
2023/07/04 03:33:25;;;;;;;2.30;1.50;;;21.00;57.50;;;;;;5053781;28;20194;-69
2023/07/04 03:35:50;;;;;;;1.98;1.45;;;20.90;57.50;;;;;;5052947;28;20175;-69
2023/07/04 03:38:16;;;;;;;2.80;1.10;;;20.90;57.40;;;;;;5053129;28;20205;-70
2023/07/04 03:40:42;;;;;;;2.80;1.40;;;20.90;57.50;;;;;;5053439;28;20371;-71
2023/07/04 03:43:07;;;;;;;3.00;1.75;;;20.90;57.50;;;;;;5052811;28;20179;-69
2023/07/04 03:45:33;;;;;;;2.40;1.45;;;20.90;57.50;;;;;;5053663;28;20193;-69
2023/07/04 03:47:59;;;;;;;2.47;1.27;;;20.90;57.40;;;;;;5053271;28;20225;-70
2023/07/04 03:50:24;;;;;;;1.80;1.20;;;20.90;57.40;;;;;;5052793;28;20602;-69
2023/07/04 03:52:50;;;;;;;3.05;1.52;;;20.90;57.50;;;;;;5053511;28;20176;-72
2023/07/04 03:55:16;;;;;;;3.63;1.75;;;20.90;57.50;;;;;;5053255;28;20176;-71
2023/07/04 03:57:42;;;;;;;1.85;1.08;;;20.90;57.50;;;;;;5052620;28;20242;-72
2023/07/04 04:00:11;;;;;;;2.38;1.60;;;20.90;57.50;;;;;;5052890;28;20210;-70
2023/07/04 04:02:36;;;;;;;2.58;1.50;;;20.90;57.40;;;;;;5053159;28;20182;-70
2023/07/04 04:05:02;;;;;;;2.50;1.38;;;20.90;58.20;;;;;;5052469;28;20171;-70
2023/07/04 04:07:27;;;;;;;3.20;1.42;;;20.90;57.50;;;;;;5053168;28;20171;-69
2023/07/04 04:09:53;;;;;;;3.70;1.70;;;20.90;57.50;;;;;;5052945;28;20159;-72
2023/07/04 04:12:18;;;;;;;2.58;1.50;;;20.90;58.10;;;;;;5052270;28;20202;-72
2023/07/04 04:14:44;;;;;;;2.60;1.50;;;20.90;57.50;;;;;;5052899;28;20622;-73
2023/07/04 04:17:09;;;;;;;2.92;1.55;;;20.90;57.50;;;;;;5052151;28;20182;-72
2023/07/04 04:19:35;;;;;;;2.28;1.33;;;20.90;57.50;;;;;;5053095;28;20214;-71
2023/07/04 04:22:01;;;;;;;1.85;1.20;;;20.90;57.50;;;;;;5052579;28;20250;-72
2023/07/04 04:24:26;;;;;;;3.72;1.55;;;20.90;57.50;;;;;;5052337;28;20321;-71
2023/07/04 04:26:52;;;;;;;5.03;1.83;;;20.90;57.50;;;;;;5052960;28;20653;-72
2023/07/04 04:29:17;;;;;;;3.42;1.50;;;20.90;57.50;;;;;;5052733;28;20642;-70
2023/07/04 04:31:46;;;;;;;3.08;1.50;;;20.90;57.60;;;;;;5052221;28;20194;-70
2023/07/04 04:34:11;;;;;;;2.75;1.58;;;20.90;57.60;;;;;;5052534;28;20392;-70
2023/07/04 04:36:37;;;;;;;3.50;1.60;;;20.90;57.60;;;;;;5052624;28;20646;-70
2023/07/04 04:39:03;;;;;;;1.40;0.98;;;20.90;57.60;;;;;;5051139;28;20592;-70
2023/07/04 04:41:29;;;;;;;2.47;1.70;;;20.90;57.60;;;;;;5052706;28;20178;-70
2023/07/04 04:43:55;;;;;;;1.58;1.20;;;20.90;57.50;;;;;;5052584;28;20225;-71
2023/07/04 04:46:21;;;;;;;2.58;1.38;;;20.90;57.60;;;;;;5051945;28;20175;-70
2023/07/04 04:48:47;;;;;;;2.05;1.30;;;20.90;57.60;;;;;;5052582;28;20258;-71
2023/07/04 04:51:15;;;;;;;2.22;1.40;;;20.90;57.60;;;;;;5052253;28;20564;-70
2023/07/04 04:53:41;;;;;;;2.42;1.27;;;20.90;57.60;;;;;;5052063;28;20171;-70
2023/07/04 04:56:08;;;;;;;2.25;1.23;;;20.90;57.60;;;;;;5052398;28;20319;-70
2023/07/04 04:58:33;;;;;;;3.58;1.80;;;20.90;57.60;;;;;;5052351;28;20215;-72
2023/07/04 05:01:22;;;;;;;2.65;1.25;;;20.90;57.50;;;;;;5051628;28;20200;-71
2023/07/04 05:03:52;;;;;;;2.03;1.52;;;21.00;57.60;;;;;;5052631;28;20201;-71
2023/07/04 05:06:18;;;;;;;1.98;1.23;;;21.00;57.50;;;;;;5051682;28;20214;-69
2023/07/04 05:08:44;;;;;;;2.40;1.55;;;20.90;57.50;;;;;;5052601;28;20183;-70
2023/07/04 05:11:09;;;;;;;2.20;1.10;;;20.90;57.50;;;;;;5052291;28;20225;-71
2023/07/04 05:13:36;;;;;;;2.10;1.10;;;21.00;57.50;;;;;;5051836;28;20245;-71
2023/07/04 05:16:06;;;;;;;2.35;1.20;;;20.90;57.60;;;;;;5052022;28;20523;-72
2023/07/04 05:18:33;;;;;;;4.05;1.83;;;20.90;57.60;;;;;;5052491;28;20225;-72
2023/07/04 05:21:13;;;;;;;2.75;1.63;;;20.90;57.60;;;;;;5051519;28;20226;-72
2023/07/04 05:23:40;;;;;;;3.17;1.73;;;20.90;57.60;;;;;;5052405;28;20179;-72
2023/07/04 05:26:10;;;;;;;3.13;1.52;;;20.90;57.60;;;;;;5052068;28;20179;-71
2023/07/04 05:28:36;;;;;;;2.63;1.40;;;20.90;57.70;;;;;;5051486;28;20179;-71
2023/07/04 05:31:03;;;;;;;2.20;1.55;;;20.90;57.70;;;;;;5052208;28;20226;-69
2023/07/04 05:33:28;;;;;;;2.55;1.50;;;20.90;57.70;;;;;;5052096;28;20709;-69
2023/07/04 05:36:19;;;;;;;3.42;1.40;;;20.90;58.40;;;;;;5051542;28;20305;-70
2023/07/04 05:38:46;;;;;;;3.38;1.70;;;20.90;57.70;;;;;;5049000;28;20726;-71
2023/07/04 05:41:13;;;;;;;2.42;1.50;;;20.90;58.40;;;;;;5051831;28;20360;-70
2023/07/04 05:43:39;;;;;;;3.72;1.60;;;20.90;57.70;;;;;;5051360;28;20183;-70
2023/07/04 05:46:05;;;;;;;2.78;1.90;;;20.90;57.70;;;;;;5052010;28;20168;-69
2023/07/04 05:48:30;;;;;;;4.72;1.88;;;20.90;57.70;;;;;;5051529;28;20540;-69
2023/07/04 05:51:00;;;;;;;2.40;1.35;;;20.90;57.80;;;;;;5053833;28;20171;-71
2023/07/04 05:53:27;;;;;;;4.25;1.75;;;20.90;57.80;;;;;;5055553;28;20641;-69
2023/07/04 05:55:53;;;;;;;3.50;1.67;;;21.00;57.90;;;;;;5055169;28;20179;-72
2023/07/04 05:58:19;;;;;;;2.50;1.70;;;20.90;57.80;;;;;;5055512;28;20232;-72
2023/07/04 06:00:45;;;;;;;3.45;1.75;;;20.90;57.80;;;;;;5055827;28;20173;-71
2023/07/04 06:03:10;;;;;;;3.92;2.20;;;20.90;57.80;;;;;;5054599;28;20625;-70
2023/07/04 06:05:39;;;;;;;3.83;1.92;;;20.90;57.80;;;;;;5055402;28;20167;-68
2023/07/04 06:08:04;;;;;;;3.50;1.73;;;20.90;57.90;;;;;;5055031;28;20262;-70
2023/07/04 06:10:30;;;;;;;4.40;1.80;;;20.90;57.90;;;;;;5054857;28;20603;-71
2023/07/04 06:12:55;;;;;;;3.72;1.88;;;20.90;57.90;;;;;;5055190;28;20175;-73
2023/07/04 06:15:21;;;;;;;1.98;1.45;;;21.00;58.00;;;;;;5055352;28;20167;-72
2023/07/04 06:17:46;;;;;;;3.53;1.65;;;21.00;57.80;;;;;;5054225;28;20230;-72
2023/07/04 06:20:12;;;;;;;2.55;1.52;;;21.00;58.50;;;;;;5054867;28;20182;-72
2023/07/04 06:22:38;;;;;;;6.25;2.05;;;21.00;57.90;;;;;;5055181;28;20600;-71
2023/07/04 06:25:04;;;;;;;3.20;1.60;;;21.00;57.90;;;;;;5054253;28;20599;-71
2023/07/04 06:27:30;;;;;;;2.17;1.48;;;21.00;57.90;;;;;;5055182;28;20212;-70
2023/07/04 06:29:56;;;;;;;4.72;2.15;;;21.10;57.80;;;;;;5054533;28;20199;-70
2023/07/04 06:32:22;;;;;;;3.97;1.95;;;21.10;57.80;;;;;;5054266;28;20209;-70
2023/07/04 06:34:47;;;;;;;3.40;1.83;;;21.10;57.70;;;;;;5054925;28;20305;-70
2023/07/04 06:37:13;;;;;;;3.58;1.75;;;21.10;57.80;;;;;;5054415;28;20175;-69
2023/07/04 06:39:38;;;;;;;3.15;1.80;;;21.10;57.80;;;;;;5053708;28;20222;-70
2023/07/04 06:42:04;;;;;;;3.08;2.05;;;21.10;57.80;;;;;;5054331;28;20179;-70
2023/07/04 06:44:29;;;;;;;4.35;1.85;;;21.10;57.80;;;;;;5054865;28;20266;-68
2023/07/04 06:46:55;;;;;;;3.15;2.08;;;21.10;57.70;;;;;;5053902;28;20201;-68
2023/07/04 06:49:21;;;;;;;4.38;2.13;;;21.20;57.60;;;;;;5054555;28;20171;-69
2023/07/04 06:51:46;;;;;;;3.90;1.90;;;21.20;58.20;;;;;;5053878;28;20178;-75
2023/07/04 06:54:12;;;;;;;7.20;2.30;;;21.20;57.70;;;;;;5054147;28;20175;-77
2023/07/04 06:56:38;;;;;;;4.43;2.42;;;21.20;57.70;;;;;;5054777;28;20515;-75
2023/07/04 06:59:03;;;;;;;5.63;2.08;;;21.20;57.80;;;;;;5053552;28;20480;-72
2023/07/04 07:01:29;;;;;;;3.92;2.05;;;21.20;57.70;;;;;;5054324;28;20254;-73
2023/07/04 07:03:55;;;;;;;4.18;2.58;;;21.30;57.70;;;;;;5054327;28;20179;-72
2023/07/04 07:06:20;;;;;;;4.10;1.85;;;21.30;57.70;;;;;;5053317;28;20638;-72
2023/07/04 07:08:46;;;;;;;5.28;2.22;;;21.30;57.80;;;;;;5054211;28;20179;-72
2023/07/04 07:11:13;;;;;;;5.20;2.00;;;21.30;57.70;;;;;;5054089;28;20176;-72
2023/07/04 07:13:39;;;;;;;5.00;2.45;;;21.30;58.40;;;;;;5053588;28;20254;-72
2023/07/04 07:16:08;;;;;;;4.65;1.90;;;21.30;58.70;;;;;;5053945;28;20250;-72
2023/07/04 07:18:34;;;;;;;6.32;2.03;;;21.20;58.10;;;;;;5053979;28;20207;-72
2023/07/04 07:21:04;;;;;;;3.42;2.17;;;21.30;58.70;;;;;;5052894;28;20225;-72
2023/07/04 07:23:30;;;;;;;4.35;2.22;;;21.20;58.20;;;;;;5052716;28;20183;-72
2023/07/04 07:25:57;;;;;;;5.40;2.40;;;21.20;58.30;;;;;;5053623;28;20266;-71
2023/07/04 07:28:23;;;;;;;5.63;2.25;;;21.20;58.20;;;;;;5053278;28;20405;-72
2023/07/04 07:31:00;;;;;;;6.47;2.55;;;21.30;58.20;;;;;;5053792;28;20650;-73
2023/07/04 07:33:25;;;;;;;5.05;2.63;;;21.20;58.10;;;;;;5053394;28;20182;-72
2023/07/04 07:35:51;;;;;;;5.50;2.42;;;21.20;58.20;;;;;;5052874;28;20175;-72
2023/07/04 07:38:16;;;;;;;5.78;2.30;;;21.20;58.20;;;;;;5053155;28;20211;-72
2023/07/04 07:40:49;;;;;;;4.20;2.20;;;21.10;58.30;;;;;;5053444;28;20305;-72
2023/07/04 07:43:15;;;;;;;4.85;2.42;;;21.10;58.30;;;;;;5052583;28;20206;-72
2023/07/04 07:45:40;;;;;;;3.30;2.30;;;21.10;58.30;;;;;;5053538;28;20552;-71
2023/07/04 07:48:06;;;;;;;6.35;2.55;;;21.10;58.40;;;;;;5052484;28;20183;-71
2023/07/04 07:50:31;;;;;;;5.72;2.22;;;21.10;58.40;;;;;;5053311;28;20190;-71
2023/07/04 07:52:57;;;;;;;4.45;2.28;;;21.10;58.40;;;;;;5053238;28;20186;-72
2023/07/04 07:55:22;;;;;;;4.93;2.50;;;21.10;58.40;;;;;;5052770;28;20262;-72
2023/07/04 07:57:48;;;;;;;5.07;2.28;;;21.10;58.40;;;;;;5053260;28;20636;-72
2023/07/04 08:00:14;;;;;;;7.13;2.15;;;21.10;58.40;;;;;;5053246;28;20550;-72
2023/07/04 08:02:40;;;;;;;4.97;2.45;;;21.20;58.30;;;;;;5052536;28;20252;-74
2023/07/04 08:05:05;;;;;;;6.65;2.30;;;21.20;58.20;;;;;;5052997;28;20267;-73
2023/07/04 08:07:31;;;;;;;4.43;2.38;;;21.20;58.00;;;;;;5053429;28;20186;-73
2023/07/04 08:09:59;;;;;;;5.45;2.65;;;21.20;58.10;;;;;;5052340;28;20258;-72
2023/07/04 08:12:24;;;;;;;6.05;2.67;;;21.20;58.00;;;;;;5052742;28;20275;-72
2023/07/04 08:14:50;;;;;;;6.85;2.55;;;21.20;58.00;;;;;;5052949;28;20266;-72
2023/07/04 08:17:16;;;;;;;4.28;2.58;;;21.20;58.00;;;;;;5052061;28;20739;-72
2023/07/04 08:19:41;;;;;;;4.45;2.10;;;21.20;58.10;;;;;;5053100;28;20297;-72
2023/07/04 08:22:07;;;;;;;5.53;2.55;;;21.20;58.20;;;;;;5052825;28;20167;-72
2023/07/04 08:24:32;;;;;;;4.82;2.17;;;21.10;58.20;;;;;;5052415;28;20183;-72
2023/07/04 08:26:58;;;;;;;3.75;2.30;;;21.10;58.20;;;;;;5052659;28;20175;-72
2023/07/04 08:29:24;;;;;;;5.30;2.22;;;21.10;58.20;;;;;;5052924;28;20178;-72
2023/07/04 08:31:49;;;;;;;4.70;2.35;;;21.10;58.20;;;;;;5052013;28;20182;-73
2023/07/04 08:34:15;;;;;;;4.78;2.28;;;21.10;58.20;;;;;;5052659;28;20168;-73
2023/07/04 08:36:41;;;;;;;6.25;2.63;;;21.10;58.30;;;;;;5052959;28;20179;-72
2023/07/04 08:39:07;;;;;;;5.47;2.58;;;21.10;58.30;;;;;;5051433;28;20304;-73
2023/07/04 08:41:52;;;;;;;4.25;2.30;;;21.10;58.20;;;;;;5052868;28;20213;-73
2023/07/04 08:44:20;;;;;;;5.30;2.50;;;21.10;58.10;;;;;;5050409;28;20654;-72
2023/07/04 08:46:50;;;;;;;6.32;2.75;;;21.20;58.10;;;;;;5051691;28;20175;-71
2023/07/04 08:49:34;;;;;;;3.92;2.50;;;21.20;58.00;;;;;;5051338;28;20179;-71
2023/07/04 08:52:25;;;;;;;5.30;2.53;;;21.20;58.00;;;;;;5051786;28;20171;-71
2023/07/04 08:54:51;;;;;;;5.13;2.70;;;21.20;57.90;;;;;;5052292;28;20187;-72
2023/07/04 08:57:36;;;;;;;3.85;2.10;;;21.20;57.90;;;;;;5052474;28;20175;-72
2023/07/04 09:00:12;;;;;;;3.60;2.10;;;21.30;57.90;;;;;;5051505;28;20716;-74
2023/07/04 09:02:44;;;;;;;6.32;2.38;;;21.30;57.70;;;;;;5051471;28;20191;-73
2023/07/04 09:05:23;;;;;;;4.10;2.05;;;21.30;57.70;;;;;;5052019;28;20171;-73
2023/07/04 09:08:01;;;;;;;4.07;2.20;;;21.30;57.60;;;;;;5050060;28;20267;-69
2023/07/04 09:10:41;;;;;;;5.63;2.45;;;21.40;57.60;;;;;;5050399;28;20174;-71
2023/07/04 09:13:10;;;;;;;6.18;2.58;;;21.30;57.50;;;;;;5051182;28;20179;-70
2023/07/04 09:15:38;;;;;;;8.15;2.40;;;21.40;57.70;;;;;;5051298;28;20190;-72
2023/07/04 09:18:08;;;;;;;3.13;2.05;;;21.40;57.60;;;;;;5051023;28;20223;-71
2023/07/04 09:20:42;;;;;;;5.15;2.60;;;21.40;57.40;;;;;;5050546;28;20626;-69
2023/07/04 09:23:11;;;;;;;4.90;2.25;;;21.50;57.40;;;;;;5050828;28;20183;-72
2023/07/04 09:25:37;;;;;;;4.43;2.22;;;21.60;57.30;;;;;;5052821;28;20179;-71
2023/07/04 09:28:04;;;;;;;4.63;2.15;;;21.60;57.20;;;;;;5053940;28;20175;-72
2023/07/04 09:30:30;;;;;;;4.13;1.92;;;21.60;57.30;;;;;;5056647;28;20179;-73
2023/07/04 09:32:55;;;;;;;5.72;2.42;;;21.60;57.30;;;;;;5055959;28;20179;-73
2023/07/04 09:35:21;;;;;;;3.88;2.38;;;21.70;57.30;;;;;;5055220;28;20205;-72
2023/07/04 09:37:56;;;;;;;6.32;2.40;;;21.70;57.30;;;;;;5055879;28;20194;-73
2023/07/04 09:40:48;;;;;;;4.13;1.90;;;21.70;57.20;;;;;;5055189;28;20273;-71
2023/07/04 09:43:32;;;;;;;3.88;2.08;;;21.70;57.70;;;;;;5054088;28;20182;-73
2023/07/04 09:46:18;;;;;;;4.00;2.03;;;21.80;56.90;;;;;;5055656;28;20232;-72
2023/07/04 09:48:43;;;;;;;5.97;2.47;;;21.80;56.80;;;;;;5054003;28;20175;-71
2023/07/04 09:51:16;;;;;;;3.60;2.20;;;21.80;56.90;;;;;;5054238;28;20228;-69
2023/07/04 09:53:41;;;;;;;4.22;2.15;;;21.80;57.60;;;;;;5055664;28;20693;-71
2023/07/04 09:56:07;;;;;;;3.40;1.90;;;21.70;56.90;;;;;;5054658;28;20206;-73
2023/07/04 09:58:32;;;;;;;3.67;1.85;;;21.80;56.90;;;;;;5055338;28;20215;-72
2023/07/04 10:01:12;;;;;;;3.75;1.63;;;21.80;57.00;;;;;;5055225;28;20179;-72
2023/07/04 10:03:38;;;;;;;5.15;2.00;;;21.80;57.00;;;;;;5053458;28;20548;-70
2023/07/04 10:06:04;;;;;;;4.47;2.00;;;21.80;57.10;;;;;;5055344;28;20198;-70
2023/07/04 10:08:30;;;;;;;5.03;2.33;;;21.80;57.10;;;;;;5054286;28;20642;-70
2023/07/04 10:10:57;;;;;;;4.75;2.15;;;21.80;57.20;;;;;;5054370;28;20167;-72
2023/07/04 10:13:25;;;;;;;4.95;2.40;;;21.80;57.10;;;;;;5054239;28;20194;-73
2023/07/04 10:15:51;;;;;;;4.38;2.25;;;21.80;57.70;;;;;;5054598;28;20229;-74
2023/07/04 10:18:33;;;;;;;3.40;2.00;;;21.90;57.00;;;;;;5054704;28;20218;-72
2023/07/04 10:20:59;;;;;;;4.60;2.38;;;21.90;56.90;;;;;;5055030;28;20171;-73
2023/07/04 10:23:26;;;;;;;3.47;2.08;;;21.90;57.00;;;;;;5054529;28;20179;-71
2023/07/04 10:25:52;;;;;;;3.83;1.90;;;21.80;57.10;;;;;;5055098;28;20668;-70
2023/07/04 10:28:19;;;;;;;5.55;2.40;;;21.80;57.20;;;;;;5054378;28;20270;-72
2023/07/04 10:30:50;;;;;;;5.47;2.78;;;21.80;57.20;;;;;;5036293;28;20191;-72
2023/07/04 10:33:24;;;;;;;7.07;2.67;;;21.90;57.20;;;;;;5037414;28;20183;-71
2023/07/04 10:35:50;;;;;;;6.68;3.05;;;21.90;57.00;;;;;;5037392;28;20176;-71
2023/07/04 10:38:28;;;;;;;6.03;2.65;;;21.90;57.00;;;;;;5053818;28;20701;-73
2023/07/04 10:40:53;;;;;;;5.25;2.47;;;21.80;56.90;;;;;;5053352;28;20842;-77
2023/07/04 10:43:29;;;;;;;4.95;2.70;;;21.80;56.90;;;;;;5053377;28;20187;-74
2023/07/04 10:45:54;;;;;;;6.22;2.50;;;21.80;56.90;;;;;;5036534;28;20550;-76
2023/07/04 10:48:20;;;;;;;5.78;2.60;;;21.90;56.90;;;;;;5053210;28;20262;-74
2023/07/04 10:50:49;;;;;;;6.10;2.75;;;21.90;56.70;;;;;;5036860;28;20179;-76
2023/07/04 10:53:14;;;;;;;6.38;2.97;;;21.90;56.60;;;;;;5052726;28;20282;-75
2023/07/04 10:56:01;;;;;;;4.95;2.53;;;21.90;56.80;;;;;;5054580;28;20634;-76
2023/07/04 10:58:29;;;;;;;5.95;2.90;;;21.90;56.90;;;;;;5052520;28;20219;-76
2023/07/04 11:01:07;;;;;;;4.15;2.40;;;21.90;56.90;;;;;;5053345;28;20197;-75
2023/07/04 11:03:59;;;;;;;7.07;2.85;;;22.00;56.70;;;;;;5053177;28;20722;-73
2023/07/04 11:06:29;;;;;;;8.93;3.15;;;21.90;56.60;;;;;;5052656;28;20179;-73
2023/07/04 11:08:55;;;;;;;5.60;2.38;;;22.00;56.50;;;;;;5053344;28;20178;-73
2023/07/04 11:11:28;;;;;;;4.22;2.45;;;22.10;56.30;;;;;;5052862;28;20544;-74
2023/07/04 11:13:56;;;;;;;4.40;2.63;;;22.10;56.50;;;;;;5052395;28;20179;-75
2023/07/04 11:16:26;;;;;;;4.72;2.47;;;22.10;56.60;;;;;;5053017;28;20175;-74
2023/07/04 11:19:03;;;;;;;3.90;2.50;;;22.10;56.60;;;;;;5053064;28;20217;-71
2023/07/04 11:21:29;;;;;;;6.38;2.83;;;22.10;56.60;;;;;;5053134;28;20170;-70
2023/07/04 11:24:10;;;;;;;6.00;2.63;;;22.10;56.50;;;;;;5054024;28;20630;-72
2023/07/04 11:26:59;;;;;;;10.13;2.80;;;22.00;56.50;;;;;;5053081;28;20273;-70
2023/07/04 11:29:25;;;;;;;8.23;2.60;;;22.00;56.60;;;;;;5054076;28;20183;-67
2023/07/04 11:32:03;;;;;;;7.28;2.88;;;22.10;56.60;;;;;;5052787;28;20274;-68
2023/07/04 11:35:15;;;;;;;7.75;2.65;;;22.10;56.30;;;;;;5053183;28;20226;-69
2023/07/04 11:37:53;;;;;;;9.98;2.60;;;22.10;56.40;;;;;;5048274;28;20262;-69
2023/07/04 11:40:19;;;;;;;8.68;2.80;;;22.10;56.10;;;;;;5052262;28;20229;-68
2023/07/04 11:42:51;;;;;;;7.10;2.88;;;22.20;56.20;;;;;;5053510;28;20246;-71
2023/07/04 11:45:17;;;;;;;5.95;2.40;;;22.20;56.10;;;;;;5052324;28;20179;-69
2023/07/04 11:48:11;;;;;;;7.63;3.33;;;22.30;56.00;;;;;;5051881;28;20186;-69
2023/07/04 11:50:43;;;;;;;8.27;2.65;;;22.20;56.00;;;;;;5050887;28;20186;-69
2023/07/04 11:53:17;;;;;;;6.00;2.50;;;22.20;56.20;;;;;;5036101;28;20186;-69
2023/07/04 11:55:43;;;;;;;6.68;2.65;;;22.10;56.30;;;;;;5051607;28;20226;-71
2023/07/04 11:58:08;;;;;;;6.50;2.42;;;22.10;56.30;;;;;;5052901;28;20214;-70
2023/07/04 12:00:37;;;;;;;5.00;2.45;;;22.10;56.30;;;;;;5053270;28;20533;-69
2023/07/04 12:03:17;;;;;;;5.10;2.10;;;22.00;56.40;;;;;;5052501;28;20175;-69
2023/07/04 12:06:03;;;;;;;3.88;2.13;;;22.00;56.40;;;;;;5053295;28;20183;-68
2023/07/04 12:08:34;;;;;;;4.85;2.33;;;22.00;56.50;;;;;;5050908;28;20186;-69
2023/07/04 12:11:08;;;;;;;3.75;2.20;;;22.10;56.30;;;;;;5052895;28;20709;-71
2023/07/04 12:13:36;;;;;;;2.97;2.10;;;22.10;56.30;;;;;;5052895;28;20236;-72
2023/07/04 12:16:03;;;;;;;5.70;2.13;;;22.10;56.10;;;;;;5034605;28;20183;-72
2023/07/04 12:18:32;;;;;;;3.35;2.03;;;22.10;56.20;;;;;;5052884;28;20219;-71
2023/07/04 12:20:57;;;;;;;4.00;2.13;;;22.10;56.20;;;;;;5051494;28;20565;-72
2023/07/04 12:23:23;;;;;;;3.63;2.20;;;22.10;56.10;;;;;;5051118;28;20182;-71
2023/07/04 12:25:50;;;;;;;3.60;2.47;;;22.10;56.00;;;;;;5035295;28;20662;-69
2023/07/04 12:28:17;;;;;;;4.00;2.10;;;22.20;55.90;;;;;;5052787;28;20233;-70
2023/07/04 12:30:53;;;;;;;4.65;2.40;;;22.20;55.90;;;;;;5052179;28;20175;-68
2023/07/04 12:33:29;;;;;;;5.22;2.20;;;22.20;55.90;;;;;;5052560;28;20170;-69
2023/07/04 12:35:59;;;;;;;4.35;1.98;;;22.10;56.00;;;;;;5052628;28;20676;-69
2023/07/04 12:38:25;;;;;;;3.17;2.03;;;22.10;56.10;;;;;;5051924;28;20574;-70
2023/07/04 12:40:51;;;;;;;3.55;2.17;;;22.00;56.20;;;;;;5052652;28;20737;-71
2023/07/04 12:43:17;;;;;;;4.05;2.03;;;22.00;56.20;;;;;;5051403;28;20218;-69
2023/07/04 12:45:42;;;;;;;4.93;2.00;;;22.00;56.30;;;;;;5034225;28;20167;-69
2023/07/04 12:48:09;;;;;;;4.68;2.15;;;22.00;56.20;;;;;;5052270;28;20353;-69
2023/07/04 12:50:39;;;;;;;4.40;2.22;;;22.00;56.20;;;;;;5050694;28;20185;-69
2023/07/04 12:53:05;;;;;;;3.47;1.70;;;22.00;56.20;;;;;;5034999;28;20653;-70